Broughton, Illinois
Current Conditions -  °F | °C
As of 2:15 AM on Saturday 25 Oct 2014 (Local Time) from KHSB Reporting Station
Haze Haze  
Wind Chill: 53°   Ceiling: 6500
Heat Index: 53°   Visibility: 5mi
Dew Point: 53°   Wind: 0mph
Humidity: 100%   Direction: NA
Pressure: 30.04"   Gusts: NA
Location:  37.93°N, 88.46°W
Report Text: KHSB 250715Z AUTO 00000KT 5SM BR BKN065 11/11 A3004 RMK AO2 T01140114
Loading
Personal Weather Stations






























Interactive Weather Map New forecast layout! Learn more

10-Day Weather Forecast

Advertisements
Track Severe Weather on mobile